sensor_id;sensor_type;location;lat;lon;timestamp;pressure;altitude;pressure_sealevel;temperature;humidity
55470;BME280;41334;47.872;16.384;2023-05-25T00:03:15;99399.78;;;12.56;76.15
55470;BME280;41334;47.872;16.384;2023-05-25T00:08:17;99403.75;;;12.42;76.81
55470;BME280;41334;47.872;16.384;2023-05-25T00:13:19;99409.78;;;12.44;77.18
55470;BME280;41334;47.872;16.384;2023-05-25T00:18:21;99406.44;;;12.33;76.78
55470;BME280;41334;47.872;16.384;2023-05-25T00:23:29;99403.56;;;12.24;76.97
55470;BME280;41334;47.872;16.384;2023-05-25T00:28:32;99408.09;;;12.20;77.38
55470;BME280;41334;47.872;16.384;2023-05-25T00:33:34;99424.50;;;12.17;76.83
55470;BME280;41334;47.872;16.384;2023-05-25T00:38:36;99424.50;;;12.17;77.06
55470;BME280;41334;47.872;16.384;2023-05-25T00:43:39;99417.25;;;12.07;78.49
55470;BME280;41334;47.872;16.384;2023-05-25T00:48:46;99408.72;;;12.03;77.71
55470;BME280;41334;47.872;16.384;2023-05-25T00:53:52;99411.00;;;11.88;79.29
55470;BME280;41334;47.872;16.384;2023-05-25T00:58:56;99414.72;;;11.83;79.36
55470;BME280;41334;47.872;16.384;2023-05-25T01:04:00;99417.84;;;11.76;79.50
55470;BME280;41334;47.872;16.384;2023-05-25T01:09:07;99418.56;;;11.68;80.34
55470;BME280;41334;47.872;16.384;2023-05-25T01:14:12;99420.28;;;11.64;79.63
55470;BME280;41334;47.872;16.384;2023-05-25T01:19:14;99421.53;;;11.58;80.75
55470;BME280;41334;47.872;16.384;2023-05-25T01:24:35;99422.44;;;11.53;81.67
55470;BME280;41334;47.872;16.384;2023-05-25T01:29:43;99427.97;;;11.53;80.11
55470;BME280;41334;47.872;16.384;2023-05-25T01:34:47;99437.81;;;11.46;81.19
55470;BME280;41334;47.872;16.384;2023-05-25T01:39:51;99442.09;;;11.38;81.72
55470;BME280;41334;47.872;16.384;2023-05-25T01:44:53;99445.47;;;11.35;81.46
55470;BME280;41334;47.872;16.384;2023-05-25T01:55:35;99440.84;;;11.31;79.78
55470;BME280;41334;47.872;16.384;2023-05-25T02:01:01;99445.66;;;11.25;81.30
55470;BME280;41334;47.872;16.384;2023-05-25T02:06:16;99448.09;;;11.26;80.04
55470;BME280;41334;47.872;16.384;2023-05-25T02:11:22;99439.31;;;11.24;80.57
55470;BME280;41334;47.872;16.384;2023-05-25T02:16:27;99450.38;;;11.24;80.37
55470;BME280;41334;47.872;16.384;2023-05-25T02:21:38;99466.22;;;11.19;79.79
55470;BME280;41334;47.872;16.384;2023-05-25T02:26:46;99459.34;;;11.16;78.92
55470;BME280;41334;47.872;16.384;2023-05-25T02:31:48;99464.06;;;11.16;80.13
55470;BME280;41334;47.872;16.384;2023-05-25T02:36:50;99469.97;;;11.09;81.06
55470;BME280;41334;47.872;16.384;2023-05-25T02:41:52;99472.19;;;11.07;80.37
55470;BME280;41334;47.872;16.384;2023-05-25T02:46:54;99472.44;;;11.11;81.17
55470;BME280;41334;47.872;16.384;2023-05-25T02:51:57;99475.91;;;11.02;80.20
55470;BME280;41334;47.872;16.384;2023-05-25T02:56:58;99481.19;;;10.99;80.05
55470;BME280;41334;47.872;16.384;2023-05-25T03:02:03;99475.50;;;11.09;81.17
55470;BME280;41334;47.872;16.384;2023-05-25T03:07:06;99483.09;;;11.17;80.76
55470;BME280;41334;47.872;16.384;2023-05-25T03:12:08;99477.28;;;11.19;80.07
55470;BME280;41334;47.872;16.384;2023-05-25T03:17:10;99476.56;;;11.27;80.64
55470;BME280;41334;47.872;16.384;2023-05-25T03:22:12;99471.91;;;11.41;79.83
55470;BME280;41334;47.872;16.384;2023-05-25T03:27:14;99476.94;;;11.53;78.38
55470;BME280;41334;47.872;16.384;2023-05-25T03:32:15;99477.44;;;12.15;77.74
55470;BME280;41334;47.872;16.384;2023-05-25T03:37:18;99476.75;;;12.96;72.74
55470;BME280;41334;47.872;16.384;2023-05-25T03:42:20;99486.94;;;12.87;72.88
55470;BME280;41334;47.872;16.384;2023-05-25T03:47:21;99489.47;;;12.61;74.27
55470;BME280;41334;47.872;16.384;2023-05-25T03:52:23;99497.34;;;12.67;74.22
55470;BME280;41334;47.872;16.384;2023-05-25T03:57:26;99493.47;;;12.68;74.33
55470;BME280;41334;47.872;16.384;2023-05-25T04:02:27;99486.84;;;14.47;68.61
55470;BME280;41334;47.872;16.384;2023-05-25T04:07:29;99479.81;;;16.39;61.12
55470;BME280;41334;47.872;16.384;2023-05-25T04:12:32;99486.78;;;17.58;57.17
55470;BME280;41334;47.872;16.384;2023-05-25T04:17:34;99483.06;;;17.66;56.17
55470;BME280;41334;47.872;16.384;2023-05-25T04:22:40;99491.41;;;18.85;52.35
55470;BME280;41334;47.872;16.384;2023-05-25T04:27:41;99498.31;;;16.14;60.35
55470;BME280;41334;47.872;16.384;2023-05-25T04:32:49;99490.50;;;15.34;63.72
55470;BME280;41334;47.872;16.384;2023-05-25T04:38:22;99489.50;;;14.61;66.88
55470;BME280;41334;47.872;16.384;2023-05-25T04:43:26;99504.72;;;14.63;66.97
55470;BME280;41334;47.872;16.384;2023-05-25T04:48:30;99505.69;;;14.50;67.20
55470;BME280;41334;47.872;16.384;2023-05-25T04:53:35;99512.41;;;14.66;66.79
55470;BME280;41334;47.872;16.384;2023-05-25T04:58:38;99513.38;;;14.62;67.14
55470;BME280;41334;47.872;16.384;2023-05-25T05:03:40;99523.56;;;14.84;66.35
55470;BME280;41334;47.872;16.384;2023-05-25T05:08:42;99522.44;;;15.02;65.97
55470;BME280;41334;47.872;16.384;2023-05-25T05:13:44;99527.34;;;15.31;64.61
55470;BME280;41334;47.872;16.384;2023-05-25T05:18:46;99521.75;;;15.49;64.65
55470;BME280;41334;47.872;16.384;2023-05-25T05:23:48;99514.19;;;15.75;61.77
55470;BME280;41334;47.872;16.384;2023-05-25T05:28:53;99522.06;;;15.56;62.91
55470;BME280;41334;47.872;16.384;2023-05-25T05:33:55;99521.44;;;15.50;62.27
55470;BME280;41334;47.872;16.384;2023-05-25T05:38:58;99528.28;;;15.61;61.00
55470;BME280;41334;47.872;16.384;2023-05-25T05:44:00;99528.47;;;15.65;60.76
55470;BME280;41334;47.872;16.384;2023-05-25T05:49:03;99530.75;;;15.63;61.39
55470;BME280;41334;47.872;16.384;2023-05-25T05:54:04;99544.56;;;16.06;59.86
55470;BME280;41334;47.872;16.384;2023-05-25T05:59:06;99551.72;;;16.24;59.31
55470;BME280;41334;47.872;16.384;2023-05-25T06:04:09;99536.75;;;16.67;57.80
55470;BME280;41334;47.872;16.384;2023-05-25T06:09:11;99552.72;;;16.58;58.22
55470;BME280;41334;47.872;16.384;2023-05-25T06:14:14;99546.06;;;17.22;56.47
55470;BME280;41334;47.872;16.384;2023-05-25T06:19:16;99551.47;;;16.76;58.00
55470;BME280;41334;47.872;16.384;2023-05-25T06:24:18;99555.63;;;16.62;56.98
55470;BME280;41334;47.872;16.384;2023-05-25T06:29:20;99556.25;;;16.38;58.22
55470;BME280;41334;47.872;16.384;2023-05-25T06:34:22;99558.63;;;16.86;56.11
55470;BME280;41334;47.872;16.384;2023-05-25T06:39:25;99559.31;;;17.04;56.43
55470;BME280;41334;47.872;16.384;2023-05-25T06:44:27;99555.69;;;16.83;56.88
55470;BME280;41334;47.872;16.384;2023-05-25T06:49:29;99547.28;;;17.12;55.98
55470;BME280;41334;47.872;16.384;2023-05-25T06:54:31;99549.41;;;17.90;54.14
55470;BME280;41334;47.872;16.384;2023-05-25T06:59:33;99553.84;;;17.37;54.79
55470;BME280;41334;47.872;16.384;2023-05-25T07:04:35;99550.47;;;17.98;54.39
55470;BME280;41334;47.872;16.384;2023-05-25T07:09:37;99551.34;;;18.84;52.76
55470;BME280;41334;47.872;16.384;2023-05-25T07:14:40;99553.34;;;18.71;51.18
55470;BME280;41334;47.872;16.384;2023-05-25T07:19:42;99550.56;;;18.71;51.63
55470;BME280;41334;47.872;16.384;2023-05-25T07:24:45;99551.28;;;18.11;50.69
55470;BME280;41334;47.872;16.384;2023-05-25T07:29:47;99555.25;;;17.97;54.45
55470;BME280;41334;47.872;16.384;2023-05-25T07:34:49;99558.00;;;18.92;51.97
55470;BME280;41334;47.872;16.384;2023-05-25T07:39:51;99561.94;;;18.29;51.78
55470;BME280;41334;47.872;16.384;2023-05-25T07:44:52;99564.19;;;18.97;50.70
55470;BME280;41334;47.872;16.384;2023-05-25T07:49:54;99563.41;;;19.25;49.98
55470;BME280;41334;47.872;16.384;2023-05-25T07:54:56;99565.31;;;19.49;49.64
55470;BME280;41334;47.872;16.384;2023-05-25T07:59:58;99557.25;;;19.59;48.77
55470;BME280;41334;47.872;16.384;2023-05-25T08:05:00;99567.91;;;19.82;47.78
55470;BME280;41334;47.872;16.384;2023-05-25T08:10:07;99562.47;;;20.49;47.12
55470;BME280;41334;47.872;16.384;2023-05-25T08:15:09;99564.53;;;20.20;47.41
55470;BME280;41334;47.872;16.384;2023-05-25T08:20:12;99567.22;;;20.17;46.00
55470;BME280;41334;47.872;16.384;2023-05-25T08:25:14;99563.53;;;20.44;46.17
55470;BME280;41334;47.872;16.384;2023-05-25T08:30:16;99567.00;;;19.78;47.64
55470;BME280;41334;47.872;16.384;2023-05-25T08:35:18;99570.06;;;20.64;46.62
55470;BME280;41334;47.872;16.384;2023-05-25T08:40:21;99570.19;;;19.92;46.58
55470;BME280;41334;47.872;16.384;2023-05-25T08:45:23;99562.41;;;20.01;46.79
55470;BME280;41334;47.872;16.384;2023-05-25T08:50:46;99564.97;;;20.38;47.84
55470;BME280;41334;47.872;16.384;2023-05-25T08:55:52;99574.66;;;20.09;48.05
55470;BME280;41334;47.872;16.384;2023-05-25T09:00:57;99578.38;;;20.92;47.24
55470;BME280;41334;47.872;16.384;2023-05-25T09:06:01;99574.00;;;21.10;44.54
55470;BME280;41334;47.872;16.384;2023-05-25T09:11:04;99573.75;;;21.35;44.63
55470;BME280;41334;47.872;16.384;2023-05-25T09:16:07;99575.13;;;22.03;42.41
55470;BME280;41334;47.872;16.384;2023-05-25T09:21:09;99572.88;;;21.50;43.80
55470;BME280;41334;47.872;16.384;2023-05-25T09:26:11;99567.09;;;20.57;46.34
55470;BME280;41334;47.872;16.384;2023-05-25T09:31:14;99576.63;;;21.03;45.58
55470;BME280;41334;47.872;16.384;2023-05-25T09:36:17;99570.63;;;22.17;41.81
55470;BME280;41334;47.872;16.384;2023-05-25T09:41:21;99578.81;;;21.29;44.73
55470;BME280;41334;47.872;16.384;2023-05-25T09:46:25;99571.94;;;20.91;45.33
55470;BME280;41334;47.872;16.384;2023-05-25T09:51:27;99567.91;;;21.08;45.93
55470;BME280;41334;47.872;16.384;2023-05-25T09:56:31;99576.66;;;21.38;44.31
55470;BME280;41334;47.872;16.384;2023-05-25T10:01:36;99562.88;;;22.34;42.78
55470;BME280;41334;47.872;16.384;2023-05-25T10:06:38;99561.81;;;22.00;41.79
55470;BME280;41334;47.872;16.384;2023-05-25T10:11:42;99553.91;;;23.00;43.15
55470;BME280;41334;47.872;16.384;2023-05-25T10:16:47;99560.38;;;23.61;41.79
55470;BME280;41334;47.872;16.384;2023-05-25T10:21:57;99560.34;;;23.58;40.98
55470;BME280;41334;47.872;16.384;2023-05-25T10:27:02;99559.72;;;23.41;40.46
55470;BME280;41334;47.872;16.384;2023-05-25T10:32:24;99541.09;;;24.38;39.88
55470;BME280;41334;47.872;16.384;2023-05-25T10:37:28;99538.84;;;22.89;42.08
55470;BME280;41334;47.872;16.384;2023-05-25T10:42:30;99539.31;;;23.85;40.33
55470;BME280;41334;47.872;16.384;2023-05-25T10:47:37;99535.00;;;23.61;40.48
55470;BME280;41334;47.872;16.384;2023-05-25T10:52:39;99527.69;;;23.90;38.83
55470;BME280;41334;47.872;16.384;2023-05-25T10:57:41;99532.09;;;24.25;39.42
55470;BME280;41334;47.872;16.384;2023-05-25T11:02:52;99522.34;;;24.19;39.49
55470;BME280;41334;47.872;16.384;2023-05-25T11:07:57;99519.50;;;23.78;38.49
55470;BME280;41334;47.872;16.384;2023-05-25T11:13:36;99518.69;;;22.87;42.30
55470;BME280;41334;47.872;16.384;2023-05-25T11:18:55;99508.44;;;22.03;44.02
55470;BME280;41334;47.872;16.384;2023-05-25T11:24:01;99489.44;;;22.19;43.67
55470;BME280;41334;47.872;16.384;2023-05-25T11:29:14;99487.13;;;24.05;40.01
55470;BME280;41334;47.872;16.384;2023-05-25T11:34:16;99487.78;;;23.21;40.69
55470;BME280;41334;47.872;16.384;2023-05-25T11:39:20;99485.47;;;23.30;38.74
55470;BME280;41334;47.872;16.384;2023-05-25T11:44:28;99476.88;;;23.87;40.22
55470;BME280;41334;47.872;16.384;2023-05-25T11:49:30;99475.03;;;23.00;42.42
55470;BME280;41334;47.872;16.384;2023-05-25T11:54:32;99466.00;;;23.51;41.61
55470;BME280;41334;47.872;16.384;2023-05-25T11:59:34;99457.19;;;23.94;41.56
55470;BME280;41334;47.872;16.384;2023-05-25T12:04:37;99452.97;;;23.73;41.23
55470;BME280;41334;47.872;16.384;2023-05-25T12:09:39;99458.13;;;24.53;40.02
55470;BME280;41334;47.872;16.384;2023-05-25T12:14:50;99456.66;;;24.25;39.29
55470;BME280;41334;47.872;16.384;2023-05-25T12:19:52;99448.19;;;24.25;40.72
55470;BME280;41334;47.872;16.384;2023-05-25T12:24:54;99442.84;;;23.35;43.06
55470;BME280;41334;47.872;16.384;2023-05-25T12:29:57;99451.78;;;24.22;38.72
55470;BME280;41334;47.872;16.384;2023-05-25T12:35:05;99444.66;;;23.50;42.74
55470;BME280;41334;47.872;16.384;2023-05-25T12:40:18;99449.66;;;23.00;42.29
55470;BME280;41334;47.872;16.384;2023-05-25T12:45:21;99439.06;;;23.58;43.10
55470;BME280;41334;47.872;16.384;2023-05-25T12:50:23;99436.47;;;23.42;43.49
55470;BME280;41334;47.872;16.384;2023-05-25T13:00:37;99419.44;;;24.09;43.58
55470;BME280;41334;47.872;16.384;2023-05-25T13:05:39;99418.06;;;23.89;41.73
55470;BME280;41334;47.872;16.384;2023-05-25T13:10:41;99422.09;;;23.54;42.86
55470;BME280;41334;47.872;16.384;2023-05-25T13:15:44;99401.59;;;23.98;42.39
55470;BME280;41334;47.872;16.384;2023-05-25T13:20:45;99396.09;;;23.68;42.91
55470;BME280;41334;47.872;16.384;2023-05-25T13:25:51;99399.53;;;23.50;43.02
55470;BME280;41334;47.872;16.384;2023-05-25T13:30:53;99405.56;;;23.49;42.98
55470;BME280;41334;47.872;16.384;2023-05-25T13:35:55;99405.41;;;23.75;42.53
55470;BME280;41334;47.872;16.384;2023-05-25T13:41:03;99401.25;;;23.25;44.43
55470;BME280;41334;47.872;16.384;2023-05-25T13:46:05;99388.22;;;23.88;43.21
55470;BME280;41334;47.872;16.384;2023-05-25T13:51:07;99387.22;;;23.66;44.29
55470;BME280;41334;47.872;16.384;2023-05-25T13:56:09;99385.66;;;23.35;44.65
55470;BME280;41334;47.872;16.384;2023-05-25T14:01:10;99375.94;;;23.69;42.88
55470;BME280;41334;47.872;16.384;2023-05-25T14:06:12;99376.41;;;23.75;44.64
55470;BME280;41334;47.872;16.384;2023-05-25T14:11:16;99383.00;;;23.52;43.51
55470;BME280;41334;47.872;16.384;2023-05-25T14:16:27;99381.00;;;23.16;44.52
55470;BME280;41334;47.872;16.384;2023-05-25T14:21:29;99373.94;;;23.66;44.32
55470;BME280;41334;47.872;16.384;2023-05-25T14:26:32;99375.88;;;23.25;44.77
55470;BME280;41334;47.872;16.384;2023-05-25T14:31:33;99378.72;;;23.25;43.78
55470;BME280;41334;47.872;16.384;2023-05-25T14:36:35;99384.03;;;22.96;44.28
55470;BME280;41334;47.872;16.384;2023-05-25T14:41:41;99367.34;;;22.54;45.53
55470;BME280;41334;47.872;16.384;2023-05-25T14:46:43;99368.41;;;23.03;45.12
55470;BME280;41334;47.872;16.384;2023-05-25T14:51:45;99380.28;;;22.59;45.81
55470;BME280;41334;47.872;16.384;2023-05-25T14:56:47;99375.03;;;22.57;46.74
55470;BME280;41334;47.872;16.384;2023-05-25T15:01:49;99363.22;;;22.78;46.77
55470;BME280;41334;47.872;16.384;2023-05-25T15:06:51;99370.56;;;23.57;44.89
55470;BME280;41334;47.872;16.384;2023-05-25T15:11:53;99376.06;;;23.06;44.10
55470;BME280;41334;47.872;16.384;2023-05-25T15:16:54;99362.44;;;23.11;45.12
55470;BME280;41334;47.872;16.384;2023-05-25T15:21:56;99352.47;;;23.21;46.91
55470;BME280;41334;47.872;16.384;2023-05-25T15:26:58;99375.25;;;23.39;43.83
55470;BME280;41334;47.872;16.384;2023-05-25T15:32:00;99361.03;;;23.28;45.06
55470;BME280;41334;47.872;16.384;2023-05-25T15:37:02;99362.44;;;23.11;45.24
55470;BME280;41334;47.872;16.384;2023-05-25T15:42:04;99354.94;;;23.22;44.18
55470;BME280;41334;47.872;16.384;2023-05-25T15:47:06;99355.34;;;24.10;41.95
55470;BME280;41334;47.872;16.384;2023-05-25T15:52:08;99361.66;;;23.51;43.53
55470;BME280;41334;47.872;16.384;2023-05-25T15:57:10;99354.00;;;23.52;44.14
55470;BME280;41334;47.872;16.384;2023-05-25T16:02:12;99357.63;;;23.93;42.04
55470;BME280;41334;47.872;16.384;2023-05-25T16:07:14;99350.38;;;23.51;42.23
55470;BME280;41334;47.872;16.384;2023-05-25T16:12:16;99348.97;;;23.31;42.69
55470;BME280;41334;47.872;16.384;2023-05-25T16:17:18;99349.00;;;23.72;41.16
55470;BME280;41334;47.872;16.384;2023-05-25T16:22:20;99337.88;;;23.49;42.80
55470;BME280;41334;47.872;16.384;2023-05-25T16:27:22;99342.69;;;23.48;43.99
55470;BME280;41334;47.872;16.384;2023-05-25T16:32:24;99338.44;;;23.24;44.27
55470;BME280;41334;47.872;16.384;2023-05-25T16:37:26;99341.13;;;23.51;43.42
55470;BME280;41334;47.872;16.384;2023-05-25T16:42:28;99348.28;;;23.41;43.18
55470;BME280;41334;47.872;16.384;2023-05-25T16:47:30;99346.34;;;23.49;43.75
55470;BME280;41334;47.872;16.384;2023-05-25T16:52:31;99342.91;;;23.29;44.83
55470;BME280;41334;47.872;16.384;2023-05-25T16:57:33;99346.53;;;22.92;44.64
55470;BME280;41334;47.872;16.384;2023-05-25T17:02:35;99346.72;;;22.77;45.02
55470;BME280;41334;47.872;16.384;2023-05-25T17:07:37;99352.75;;;22.45;45.59
55470;BME280;41334;47.872;16.384;2023-05-25T17:12:40;99353.31;;;22.28;46.59
55470;BME280;41334;47.872;16.384;2023-05-25T17:17:42;99363.75;;;22.27;45.10
55470;BME280;41334;47.872;16.384;2023-05-25T17:22:44;99351.09;;;23.41;44.59
55470;BME280;41334;47.872;16.384;2023-05-25T17:27:46;99355.66;;;23.97;41.99
55470;BME280;41334;47.872;16.384;2023-05-25T17:32:48;99348.22;;;24.30;41.06
55470;BME280;41334;47.872;16.384;2023-05-25T17:37:50;99357.53;;;23.05;43.62
55470;BME280;41334;47.872;16.384;2023-05-25T17:42:52;99364.09;;;22.82;45.54
55470;BME280;41334;47.872;16.384;2023-05-25T17:47:56;99370.72;;;22.10;47.30
55470;BME280;41334;47.872;16.384;2023-05-25T17:53:02;99373.69;;;21.94;47.75
55470;BME280;41334;47.872;16.384;2023-05-25T17:58:04;99369.00;;;21.79;47.73
55470;BME280;41334;47.872;16.384;2023-05-25T18:03:06;99375.13;;;21.62;48.34
55470;BME280;41334;47.872;16.384;2023-05-25T18:08:09;99371.44;;;21.15;49.07
55470;BME280;41334;47.872;16.384;2023-05-25T18:13:11;99373.94;;;21.21;50.09
55470;BME280;41334;47.872;16.384;2023-05-25T18:18:13;99385.41;;;20.92;50.98
55470;BME280;41334;47.872;16.384;2023-05-25T18:23:17;99382.63;;;20.73;51.85
55470;BME280;41334;47.872;16.384;2023-05-25T18:28:18;99383.78;;;20.53;52.79
55470;BME280;41334;47.872;16.384;2023-05-25T18:33:20;99394.91;;;20.33;53.57
55470;BME280;41334;47.872;16.384;2023-05-25T18:38:23;99398.41;;;20.11;54.69
55470;BME280;41334;47.872;16.384;2023-05-25T18:43:27;99387.84;;;19.88;54.73
55470;BME280;41334;47.872;16.384;2023-05-25T18:48:29;99389.38;;;19.70;55.71
55470;BME280;41334;47.872;16.384;2023-05-25T18:53:31;99396.88;;;19.50;56.71
55470;BME280;41334;47.872;16.384;2023-05-25T18:58:33;99393.94;;;19.31;57.06
55470;BME280;41334;47.872;16.384;2023-05-25T19:03:38;99397.50;;;19.16;57.45
55470;BME280;41334;47.872;16.384;2023-05-25T19:08:40;99397.84;;;18.98;58.26
55470;BME280;41334;47.872;16.384;2023-05-25T19:13:45;99412.59;;;18.83;58.59
55470;BME280;41334;47.872;16.384;2023-05-25T19:18:47;99420.22;;;18.70;59.00
55470;BME280;41334;47.872;16.384;2023-05-25T19:23:49;99420.19;;;18.58;59.06
55470;BME280;41334;47.872;16.384;2023-05-25T19:28:52;99428.25;;;18.47;59.64
55470;BME280;41334;47.872;16.384;2023-05-25T19:33:54;99422.31;;;18.37;59.71
55470;BME280;41334;47.872;16.384;2023-05-25T19:38:56;99425.59;;;18.26;60.09
55470;BME280;41334;47.872;16.384;2023-05-25T19:43:58;99427.59;;;18.14;60.02
55470;BME280;41334;47.872;16.384;2023-05-25T19:49:00;99435.19;;;18.01;61.28
55470;BME280;41334;47.872;16.384;2023-05-25T19:54:02;99437.13;;;17.88;62.46
55470;BME280;41334;47.872;16.384;2023-05-25T19:59:03;99428.28;;;17.74;62.60
55470;BME280;41334;47.872;16.384;2023-05-25T20:04:05;99435.44;;;17.63;62.15
55470;BME280;41334;47.872;16.384;2023-05-25T20:09:07;99445.78;;;17.50;62.81
55470;BME280;41334;47.872;16.384;2023-05-25T20:14:12;99438.66;;;17.40;62.84
55470;BME280;41334;47.872;16.384;2023-05-25T20:19:14;99447.59;;;17.34;63.53
55470;BME280;41334;47.872;16.384;2023-05-25T20:24:17;99456.38;;;17.23;63.77
55470;BME280;41334;47.872;16.384;2023-05-25T20:29:19;99445.19;;;17.11;63.66
55470;BME280;41334;47.872;16.384;2023-05-25T20:34:23;99461.19;;;17.02;63.99
55470;BME280;41334;47.872;16.384;2023-05-25T20:39:25;99460.31;;;16.89;64.79
55470;BME280;41334;47.872;16.384;2023-05-25T20:44:27;99465.00;;;16.76;64.91
55470;BME280;41334;47.872;16.384;2023-05-25T20:49:29;99466.88;;;16.64;66.56
55470;BME280;41334;47.872;16.384;2023-05-25T20:54:31;99462.03;;;16.52;65.45
55470;BME280;41334;47.872;16.384;2023-05-25T20:59:33;99475.38;;;16.46;65.72
55470;BME280;41334;47.872;16.384;2023-05-25T21:04:35;99479.53;;;16.32;67.07
55470;BME280;41334;47.872;16.384;2023-05-25T21:09:37;99471.75;;;16.16;69.04
55470;BME280;41334;47.872;16.384;2023-05-25T21:14:39;99485.41;;;16.09;67.78
55470;BME280;41334;47.872;16.384;2023-05-25T21:19:41;99488.38;;;16.04;69.01
55470;BME280;41334;47.872;16.384;2023-05-25T21:24:43;99486.59;;;15.91;69.94
55470;BME280;41334;47.872;16.384;2023-05-25T21:29:44;99496.13;;;15.90;68.75
55470;BME280;41334;47.872;16.384;2023-05-25T21:34:46;99489.44;;;15.82;68.19
55470;BME280;41334;47.872;16.384;2023-05-25T21:39:48;99501.59;;;15.69;71.57
55470;BME280;41334;47.872;16.384;2023-05-25T21:50:20;99521.25;;;15.46;70.04
55470;BME280;41334;47.872;16.384;2023-05-25T21:55:22;99519.28;;;15.38;70.64
55470;BME280;41334;47.872;16.384;2023-05-25T22:00:26;99524.72;;;15.35;70.67
55470;BME280;41334;47.872;16.384;2023-05-25T22:05:28;99534.38;;;15.29;70.36
55470;BME280;41334;47.872;16.384;2023-05-25T22:10:35;99525.06;;;15.25;69.91
55470;BME280;41334;47.872;16.384;2023-05-25T22:15:37;99532.75;;;15.19;70.64
55470;BME280;41334;47.872;16.384;2023-05-25T22:20:39;99536.84;;;15.13;70.71
55470;BME280;41334;47.872;16.384;2023-05-25T22:25:42;99532.25;;;15.08;71.41
55470;BME280;41334;47.872;16.384;2023-05-25T22:30:44;99532.72;;;15.02;71.41
55470;BME280;41334;47.872;16.384;2023-05-25T22:35:46;99529.63;;;14.94;72.03
55470;BME280;41334;47.872;16.384;2023-05-25T22:40:48;99521.94;;;14.91;73.43
55470;BME280;41334;47.872;16.384;2023-05-25T22:45:50;99539.75;;;14.90;72.53
55470;BME280;41334;47.872;16.384;2023-05-25T22:50:54;99527.81;;;14.90;71.75
55470;BME280;41334;47.872;16.384;2023-05-25T22:55:56;99529.44;;;14.82;71.81
55470;BME280;41334;47.872;16.384;2023-05-25T23:00:58;99523.72;;;14.79;72.54
55470;BME280;41334;47.872;16.384;2023-05-25T23:06:00;99526.31;;;14.75;73.69
55470;BME280;41334;47.872;16.384;2023-05-25T23:11:01;99533.50;;;14.67;72.04
55470;BME280;41334;47.872;16.384;2023-05-25T23:16:03;99536.25;;;14.59;71.41
55470;BME280;41334;47.872;16.384;2023-05-25T23:21:05;99537.19;;;14.46;73.72
55470;BME280;41334;47.872;16.384;2023-05-25T23:26:07;99544.84;;;14.40;72.18
55470;BME280;41334;47.872;16.384;2023-05-25T23:31:09;99538.44;;;14.31;73.47
55470;BME280;41334;47.872;16.384;2023-05-25T23:36:11;99537.56;;;14.22;74.05
55470;BME280;41334;47.872;16.384;2023-05-25T23:41:13;99542.16;;;14.18;72.62
55470;BME280;41334;47.872;16.384;2023-05-25T23:46:17;99540.00;;;14.14;71.25
55470;BME280;41334;47.872;16.384;2023-05-25T23:51:18;99545.56;;;14.14;72.81
55470;BME280;41334;47.872;16.384;2023-05-25T23:56:20;99543.72;;;14.01;73.72
